sensor_id;sensor_type;location;lat;lon;timestamp;pressure;altitude;pressure_sealevel;temperature;humidity
76732;BME280;65656;51.130;13.658;2023-03-14T00:03:13;97303.81;;;9.02;100.00
76732;BME280;65656;51.130;13.658;2023-03-14T00:07:14;97298.34;;;9.02;100.00
76732;BME280;65656;51.130;13.658;2023-03-14T00:11:19;97278.16;;;9.03;100.00
76732;BME280;65656;51.130;13.658;2023-03-14T00:15:22;97270.81;;;8.98;100.00
76732;BME280;65656;51.130;13.658;2023-03-14T00:19:23;97270.47;;;9.05;100.00
76732;BME280;65656;51.130;13.658;2023-03-14T00:23:25;97266.38;;;9.02;100.00
76732;BME280;65656;51.130;13.658;2023-03-14T00:27:26;97259.41;;;9.15;100.00
76732;BME280;65656;51.130;13.658;2023-03-14T00:31:29;97267.59;;;9.15;100.00
76732;BME280;65656;51.130;13.658;2023-03-14T00:35:31;97255.69;;;9.06;100.00
76732;BME280;65656;51.130;13.658;2023-03-14T00:39:32;97260.09;;;9.02;100.00
76732;BME280;65656;51.130;13.658;2023-03-14T00:43:34;97269.94;;;9.03;100.00
76732;BME280;65656;51.130;13.658;2023-03-14T00:47:37;97271.03;;;9.02;100.00
76732;BME280;65656;51.130;13.658;2023-03-14T00:51:38;97267.56;;;8.96;100.00
76732;BME280;65656;51.130;13.658;2023-03-14T00:55:41;97272.78;;;8.92;100.00
76732;BME280;65656;51.130;13.658;2023-03-14T00:59:43;97273.38;;;8.89;100.00
76732;BME280;65656;51.130;13.658;2023-03-14T01:03:50;97287.56;;;8.91;100.00
76732;BME280;65656;51.130;13.658;2023-03-14T01:07:52;97279.66;;;8.90;100.00
76732;BME280;65656;51.130;13.658;2023-03-14T01:11:53;97288.72;;;8.85;100.00
76732;BME280;65656;51.130;13.658;2023-03-14T01:15:55;97279.59;;;8.71;100.00
76732;BME280;65656;51.130;13.658;2023-03-14T01:19:57;97245.28;;;8.65;100.00
76732;BME280;65656;51.130;13.658;2023-03-14T01:24:01;97256.88;;;8.76;100.00
76732;BME280;65656;51.130;13.658;2023-03-14T01:28:03;97253.28;;;8.80;100.00
76732;BME280;65656;51.130;13.658;2023-03-14T01:32:05;97261.75;;;8.79;100.00
76732;BME280;65656;51.130;13.658;2023-03-14T01:36:09;97268.03;;;8.79;100.00
76732;BME280;65656;51.130;13.658;2023-03-14T01:40:11;97262.56;;;8.79;100.00
76732;BME280;65656;51.130;13.658;2023-03-14T01:44:13;97267.47;;;8.82;100.00
76732;BME280;65656;51.130;13.658;2023-03-14T01:48:14;97260.44;;;8.76;100.00
76732;BME280;65656;51.130;13.658;2023-03-14T01:52:19;97263.16;;;8.76;100.00
76732;BME280;65656;51.130;13.658;2023-03-14T01:56:22;97255.00;;;8.71;100.00
76732;BME280;65656;51.130;13.658;2023-03-14T02:00:24;97267.94;;;8.65;100.00
76732;BME280;65656;51.130;13.658;2023-03-14T02:04:28;97266.34;;;8.59;100.00
76732;BME280;65656;51.130;13.658;2023-03-14T02:08:33;97262.34;;;8.76;100.00
76732;BME280;65656;51.130;13.658;2023-03-14T02:12:36;97261.47;;;8.80;100.00
76732;BME280;65656;51.130;13.658;2023-03-14T02:16:37;97267.00;;;8.75;100.00
76732;BME280;65656;51.130;13.658;2023-03-14T02:20:44;97258.84;;;8.70;100.00
76732;BME280;65656;51.130;13.658;2023-03-14T02:24:58;97249.38;;;8.62;100.00
76732;BME280;65656;51.130;13.658;2023-03-14T02:29:03;97244.63;;;8.73;99.32
76732;BME280;65656;51.130;13.658;2023-03-14T02:33:08;97234.69;;;8.82;98.25
76732;BME280;65656;51.130;13.658;2023-03-14T02:37:10;97228.88;;;8.89;98.42
76732;BME280;65656;51.130;13.658;2023-03-14T02:41:12;97239.56;;;8.85;96.97
76732;BME280;65656;51.130;13.658;2023-03-14T02:45:34;97242.91;;;9.01;96.06
76732;BME280;65656;51.130;13.658;2023-03-14T02:49:36;97247.44;;;9.11;95.85
76732;BME280;65656;51.130;13.658;2023-03-14T02:53:38;97253.16;;;8.90;97.28
76732;BME280;65656;51.130;13.658;2023-03-14T02:57:39;97250.03;;;8.78;96.78
76732;BME280;65656;51.130;13.658;2023-03-14T03:01:42;97238.19;;;8.64;98.85
76732;BME280;65656;51.130;13.658;2023-03-14T03:05:47;97244.44;;;8.88;93.63
76732;BME280;65656;51.130;13.658;2023-03-14T03:09:49;97240.78;;;9.17;91.45
76732;BME280;65656;51.130;13.658;2023-03-14T03:13:50;97234.50;;;9.16;92.59
76732;BME280;65656;51.130;13.658;2023-03-14T03:17:53;97228.75;;;9.18;92.26
76732;BME280;65656;51.130;13.658;2023-03-14T03:21:55;97230.16;;;8.97;92.42
76732;BME280;65656;51.130;13.658;2023-03-14T03:25:56;97231.38;;;8.85;94.23
76732;BME280;65656;51.130;13.658;2023-03-14T03:29:58;97228.06;;;8.88;92.01
76732;BME280;65656;51.130;13.658;2023-03-14T03:34:01;97218.97;;;8.74;94.22
76732;BME280;65656;51.130;13.658;2023-03-14T03:38:02;97221.22;;;8.67;93.83
76732;BME280;65656;51.130;13.658;2023-03-14T03:42:04;97228.25;;;8.49;95.71
76732;BME280;65656;51.130;13.658;2023-03-14T03:46:06;97236.63;;;8.58;91.73
76732;BME280;65656;51.130;13.658;2023-03-14T03:50:10;97230.41;;;8.52;93.79
76732;BME280;65656;51.130;13.658;2023-03-14T03:54:11;97225.88;;;8.43;93.58
76732;BME280;65656;51.130;13.658;2023-03-14T03:58:13;97236.19;;;8.46;92.62
76732;BME280;65656;51.130;13.658;2023-03-14T04:02:14;97233.31;;;8.61;92.73
76732;BME280;65656;51.130;13.658;2023-03-14T04:06:17;97226.75;;;9.05;89.27
76732;BME280;65656;51.130;13.658;2023-03-14T04:10:19;97234.16;;;9.23;88.00
76732;BME280;65656;51.130;13.658;2023-03-14T04:14:20;97238.19;;;9.26;86.66
76732;BME280;65656;51.130;13.658;2023-03-14T04:18:22;97233.88;;;9.43;86.79
76732;BME280;65656;51.130;13.658;2023-03-14T04:22:25;97235.25;;;9.41;86.23
76732;BME280;65656;51.130;13.658;2023-03-14T04:26:27;97234.59;;;9.30;87.03
76732;BME280;65656;51.130;13.658;2023-03-14T04:30:29;97226.53;;;9.39;85.57
76732;BME280;65656;51.130;13.658;2023-03-14T04:34:30;97217.59;;;9.33;85.63
76732;BME280;65656;51.130;13.658;2023-03-14T04:38:33;97209.72;;;9.13;86.40
76732;BME280;65656;51.130;13.658;2023-03-14T04:42:35;97204.47;;;8.98;87.82
76732;BME280;65656;51.130;13.658;2023-03-14T04:46:36;97214.69;;;8.87;87.25
76732;BME280;65656;51.130;13.658;2023-03-14T04:50:38;97192.63;;;8.83;86.81
76732;BME280;65656;51.130;13.658;2023-03-14T04:54:40;97201.31;;;8.85;88.02
76732;BME280;65656;51.130;13.658;2023-03-14T04:58:42;97197.16;;;8.69;87.61
76732;BME280;65656;51.130;13.658;2023-03-14T05:02:44;97195.91;;;8.61;88.01
76732;BME280;65656;51.130;13.658;2023-03-14T05:06:45;97181.06;;;8.49;87.27
76732;BME280;65656;51.130;13.658;2023-03-14T05:10:52;97175.31;;;8.69;85.72
76732;BME280;65656;51.130;13.658;2023-03-14T05:14:54;97192.84;;;8.87;85.25
76732;BME280;65656;51.130;13.658;2023-03-14T05:18:55;97192.22;;;9.14;83.57
76732;BME280;65656;51.130;13.658;2023-03-14T05:22:57;97196.34;;;9.11;83.53
76732;BME280;65656;51.130;13.658;2023-03-14T05:26:59;97194.03;;;9.00;85.24
76732;BME280;65656;51.130;13.658;2023-03-14T05:31:06;97184.72;;;9.01;83.11
76732;BME280;65656;51.130;13.658;2023-03-14T05:35:08;97178.31;;;9.10;82.62
76732;BME280;65656;51.130;13.658;2023-03-14T05:39:09;97179.72;;;9.08;83.80
76732;BME280;65656;51.130;13.658;2023-03-14T05:43:12;97174.56;;;8.87;86.37
76732;BME280;65656;51.130;13.658;2023-03-14T05:47:14;97186.28;;;9.07;83.31
76732;BME280;65656;51.130;13.658;2023-03-14T05:51:15;97165.63;;;9.01;83.78
76732;BME280;65656;51.130;13.658;2023-03-14T05:55:17;97158.53;;;9.00;83.38
76732;BME280;65656;51.130;13.658;2023-03-14T05:59:20;97165.91;;;8.80;84.13
76732;BME280;65656;51.130;13.658;2023-03-14T06:03:21;97166.94;;;8.84;83.25
76732;BME280;65656;51.130;13.658;2023-03-14T06:07:23;97169.63;;;8.89;84.04
76732;BME280;65656;51.130;13.658;2023-03-14T06:11:24;97176.25;;;8.83;84.68
76732;BME280;65656;51.130;13.658;2023-03-14T06:15:27;97176.25;;;8.83;84.63
76732;BME280;65656;51.130;13.658;2023-03-14T06:19:29;97175.28;;;8.93;84.60
76732;BME280;65656;51.130;13.658;2023-03-14T06:23:30;97188.22;;;8.87;85.90
76732;BME280;65656;51.130;13.658;2023-03-14T06:27:32;97189.25;;;8.91;84.17
76732;BME280;65656;51.130;13.658;2023-03-14T06:31:35;97188.63;;;8.94;85.57
76732;BME280;65656;51.130;13.658;2023-03-14T06:35:36;97178.59;;;9.09;85.17
76732;BME280;65656;51.130;13.658;2023-03-14T06:39:38;97198.13;;;9.21;83.36
76732;BME280;65656;51.130;13.658;2023-03-14T06:43:39;97209.63;;;9.18;84.49
76732;BME280;65656;51.130;13.658;2023-03-14T06:47:42;97211.13;;;9.29;83.41
76732;BME280;65656;51.130;13.658;2023-03-14T06:51:44;97207.72;;;9.37;83.08
76732;BME280;65656;51.130;13.658;2023-03-14T06:55:45;97204.91;;;9.42;83.15
76732;BME280;65656;51.130;13.658;2023-03-14T06:59:47;97193.81;;;9.53;83.00
76732;BME280;65656;51.130;13.658;2023-03-14T07:03:50;97210.81;;;9.49;82.35
76732;BME280;65656;51.130;13.658;2023-03-14T07:07:51;97214.63;;;9.48;81.66
76732;BME280;65656;51.130;13.658;2023-03-14T07:11:52;97204.81;;;9.47;82.97
76732;BME280;65656;51.130;13.658;2023-03-14T07:15:54;97200.91;;;9.54;82.63
76732;BME280;65656;51.130;13.658;2023-03-14T07:19:57;97207.06;;;9.78;81.42
76732;BME280;65656;51.130;13.658;2023-03-14T07:23:58;97207.28;;;9.82;80.28
76732;BME280;65656;51.130;13.658;2023-03-14T07:28:00;97204.25;;;9.83;79.66
76732;BME280;65656;51.130;13.658;2023-03-14T07:32:01;97207.50;;;9.85;81.49
76732;BME280;65656;51.130;13.658;2023-03-14T07:36:05;97207.28;;;9.82;80.52
76732;BME280;65656;51.130;13.658;2023-03-14T07:40:07;97204.69;;;9.90;79.31
76732;BME280;65656;51.130;13.658;2023-03-14T07:44:09;97217.25;;;9.91;79.85
76732;BME280;65656;51.130;13.658;2023-03-14T07:48:10;97215.25;;;9.97;80.29
76732;BME280;65656;51.130;13.658;2023-03-14T07:52:13;97214.94;;;9.98;81.65
76732;BME280;65656;51.130;13.658;2023-03-14T07:56:14;97213.75;;;10.04;79.58
76732;BME280;65656;51.130;13.658;2023-03-14T08:00:17;97214.66;;;10.14;79.25
76732;BME280;65656;51.130;13.658;2023-03-14T08:04:18;97214.88;;;10.17;78.55
76732;BME280;65656;51.130;13.658;2023-03-14T08:08:21;97204.16;;;10.21;79.49
76732;BME280;65656;51.130;13.658;2023-03-14T08:12:22;97198.09;;;10.24;79.36
76732;BME280;65656;51.130;13.658;2023-03-14T08:16:24;97208.41;;;10.27;78.84
76732;BME280;65656;51.130;13.658;2023-03-14T08:20:28;97204.38;;;10.38;77.69
76732;BME280;65656;51.130;13.658;2023-03-14T08:24:31;97203.59;;;10.51;77.99
76732;BME280;65656;51.130;13.658;2023-03-14T08:28:32;97200.75;;;10.70;76.49
76732;BME280;65656;51.130;13.658;2023-03-14T08:32:34;97190.19;;;10.77;74.63
76732;BME280;65656;51.130;13.658;2023-03-14T08:36:35;97183.41;;;10.75;76.30
76732;BME280;65656;51.130;13.658;2023-03-14T08:40:38;97177.59;;;10.90;73.71
76732;BME280;65656;51.130;13.658;2023-03-14T08:44:40;97181.34;;;10.94;72.60
76732;BME280;65656;51.130;13.658;2023-03-14T08:48:41;97182.22;;;11.03;73.09
76732;BME280;65656;51.130;13.658;2023-03-14T08:52:43;97180.38;;;11.12;71.77
76732;BME280;65656;51.130;13.658;2023-03-14T08:56:46;97184.03;;;11.22;73.14
76732;BME280;65656;51.130;13.658;2023-03-14T09:00:47;97171.22;;;11.31;71.34
76732;BME280;65656;51.130;13.658;2023-03-14T09:04:50;97192.66;;;11.51;70.03
76732;BME280;65656;51.130;13.658;2023-03-14T09:08:51;97201.78;;;11.60;70.58
76732;BME280;65656;51.130;13.658;2023-03-14T09:12:54;97175.22;;;11.47;68.78
76732;BME280;65656;51.130;13.658;2023-03-14T09:16:56;97186.94;;;11.61;69.08
76732;BME280;65656;51.130;13.658;2023-03-14T09:20:57;97182.81;;;11.72;70.37
76732;BME280;65656;51.130;13.658;2023-03-14T09:24:59;97183.00;;;11.76;70.08
76732;BME280;65656;51.130;13.658;2023-03-14T09:29:01;97191.19;;;11.67;68.94
76732;BME280;65656;51.130;13.658;2023-03-14T09:33:03;97186.31;;;11.64;68.92
76732;BME280;65656;51.130;13.658;2023-03-14T09:37:04;97203.44;;;11.48;70.55
76732;BME280;65656;51.130;13.658;2023-03-14T09:41:14;97204.50;;;11.38;69.15
76732;BME280;65656;51.130;13.658;2023-03-14T09:45:24;97215.47;;;11.38;69.54
76732;BME280;65656;51.130;13.658;2023-03-14T09:49:28;97201.69;;;11.29;69.86
76732;BME280;65656;51.130;13.658;2023-03-14T09:53:36;97205.34;;;11.25;69.63
76732;BME280;65656;51.130;13.658;2023-03-14T09:57:39;97209.19;;;11.24;70.86
76732;BME280;65656;51.130;13.658;2023-03-14T10:01:44;97216.13;;;11.07;71.07
76732;BME280;65656;51.130;13.658;2023-03-14T10:05:45;97214.94;;;11.00;70.19
76732;BME280;65656;51.130;13.658;2023-03-14T10:09:48;97210.25;;;11.00;70.94
76732;BME280;65656;51.130;13.658;2023-03-14T10:14:03;97215.34;;;10.93;70.39
76732;BME280;65656;51.130;13.658;2023-03-14T10:18:11;97216.38;;;10.97;70.91
76732;BME280;65656;51.130;13.658;2023-03-14T10:22:14;97212.28;;;11.08;70.40
76732;BME280;65656;51.130;13.658;2023-03-14T10:26:17;97205.19;;;11.07;70.72
76732;BME280;65656;51.130;13.658;2023-03-14T10:30:28;97213.25;;;11.12;70.69
76732;BME280;65656;51.130;13.658;2023-03-14T10:34:34;97203.16;;;11.13;70.51
76732;BME280;65656;51.130;13.658;2023-03-14T10:38:36;97210.03;;;11.10;70.39
76732;BME280;65656;51.130;13.658;2023-03-14T10:42:40;97207.28;;;11.10;70.35
76732;BME280;65656;51.130;13.658;2023-03-14T10:46:43;97203.56;;;11.06;69.89
76732;BME280;65656;51.130;13.658;2023-03-14T10:50:54;97198.88;;;11.07;70.71
76732;BME280;65656;51.130;13.658;2023-03-14T10:54:58;97203.94;;;11.13;69.44
76732;BME280;65656;51.130;13.658;2023-03-14T10:59:00;97203.31;;;11.16;69.24
76732;BME280;65656;51.130;13.658;2023-03-14T11:03:08;97196.81;;;11.12;69.53
76732;BME280;65656;51.130;13.658;2023-03-14T11:07:16;97202.91;;;11.23;69.43
76732;BME280;65656;51.130;13.658;2023-03-14T11:11:23;97203.09;;;11.27;69.87
76732;BME280;65656;51.130;13.658;2023-03-14T11:15:30;97197.41;;;11.37;69.43
76732;BME280;65656;51.130;13.658;2023-03-14T11:19:43;97198.75;;;11.48;68.90
76732;BME280;65656;51.130;13.658;2023-03-14T11:24:01;97177.69;;;11.80;67.52
76732;BME280;65656;51.130;13.658;2023-03-14T11:28:15;97182.72;;;12.00;67.25
76732;BME280;65656;51.130;13.658;2023-03-14T11:32:25;97187.28;;;12.13;67.12
76732;BME280;65656;51.130;13.658;2023-03-14T11:36:31;97181.72;;;12.27;66.51
76732;BME280;65656;51.130;13.658;2023-03-14T11:40:36;97181.81;;;12.13;66.55
76732;BME280;65656;51.130;13.658;2023-03-14T11:44:39;97166.25;;;12.00;66.16
76732;BME280;65656;51.130;13.658;2023-03-14T11:48:45;97158.88;;;12.09;66.05
76732;BME280;65656;51.130;13.658;2023-03-14T11:52:54;97152.31;;;12.27;64.96
76732;BME280;65656;51.130;13.658;2023-03-14T11:57:01;97151.75;;;12.39;63.87
76732;BME280;65656;51.130;13.658;2023-03-14T12:01:06;97151.16;;;12.60;64.06
76732;BME280;65656;51.130;13.658;2023-03-14T12:05:30;97146.22;;;12.88;62.70
76732;BME280;65656;51.130;13.658;2023-03-14T12:09:34;97133.97;;;13.11;61.57
76732;BME280;65656;51.130;13.658;2023-03-14T12:13:39;97129.47;;;13.50;62.30
76732;BME280;65656;51.130;13.658;2023-03-14T12:17:41;97135.44;;;13.78;60.96
76732;BME280;65656;51.130;13.658;2023-03-14T12:21:47;97128.72;;;14.52;57.87
76732;BME280;65656;51.130;13.658;2023-03-14T12:26:06;97140.66;;;14.26;59.80
76732;BME280;65656;51.130;13.658;2023-03-14T12:30:16;97124.56;;;13.81;58.19
76732;BME280;65656;51.130;13.658;2023-03-14T12:34:28;97121.91;;;14.11;57.84
76732;BME280;65656;51.130;13.658;2023-03-14T12:38:44;97117.28;;;14.70;58.36
76732;BME280;65656;51.130;13.658;2023-03-14T12:42:57;97126.66;;;14.31;59.47
76732;BME280;65656;51.130;13.658;2023-03-14T12:51:35;97130.59;;;15.19;57.96
76732;BME280;65656;51.130;13.658;2023-03-14T12:55:44;97109.22;;;14.65;58.06
76732;BME280;65656;51.130;13.658;2023-03-14T12:59:48;97113.03;;;15.02;56.11
76732;BME280;65656;51.130;13.658;2023-03-14T13:03:55;97110.16;;;14.69;56.50
76732;BME280;65656;51.130;13.658;2023-03-14T13:08:05;97103.38;;;16.04;54.29
76732;BME280;65656;51.130;13.658;2023-03-14T13:12:09;97102.84;;;16.35;50.12
76732;BME280;65656;51.130;13.658;2023-03-14T13:16:15;97093.50;;;14.66;54.14
76732;BME280;65656;51.130;13.658;2023-03-14T13:20:22;97086.25;;;15.66;51.42
76732;BME280;65656;51.130;13.658;2023-03-14T13:24:27;97087.06;;;16.85;49.37
76732;BME280;65656;51.130;13.658;2023-03-14T13:28:29;97091.19;;;14.68;54.38
76732;BME280;65656;51.130;13.658;2023-03-14T13:32:31;97083.19;;;15.58;52.77
76732;BME280;65656;51.130;13.658;2023-03-14T13:36:35;97070.75;;;14.69;55.06
76732;BME280;65656;51.130;13.658;2023-03-14T13:40:36;97064.84;;;14.20;55.08
76732;BME280;65656;51.130;13.658;2023-03-14T13:44:39;97069.03;;;15.27;52.59
76732;BME280;65656;51.130;13.658;2023-03-14T13:48:44;97067.41;;;14.84;53.76
76732;BME280;65656;51.130;13.658;2023-03-14T13:52:55;97061.91;;;14.84;53.62
76732;BME280;65656;51.130;13.658;2023-03-14T13:57:01;97072.69;;;14.01;55.85
76732;BME280;65656;51.130;13.658;2023-03-14T14:01:05;97070.38;;;13.64;57.70
76732;BME280;65656;51.130;13.658;2023-03-14T14:05:10;97078.50;;;13.35;58.25
76732;BME280;65656;51.130;13.658;2023-03-14T14:09:15;97077.38;;;13.27;58.84
76732;BME280;65656;51.130;13.658;2023-03-14T14:13:21;97057.28;;;13.53;57.06
76732;BME280;65656;51.130;13.658;2023-03-14T14:17:28;97053.16;;;14.23;55.73
76732;BME280;65656;51.130;13.658;2023-03-14T14:21:31;97050.31;;;14.70;54.87
76732;BME280;65656;51.130;13.658;2023-03-14T14:25:34;97037.94;;;15.72;50.70
76732;BME280;65656;51.130;13.658;2023-03-14T14:29:35;97057.38;;;16.69;49.42
76732;BME280;65656;51.130;13.658;2023-03-14T14:33:39;97056.66;;;17.25;46.58
76732;BME280;65656;51.130;13.658;2023-03-14T14:37:43;97039.03;;;16.77;47.84
76732;BME280;65656;51.130;13.658;2023-03-14T14:41:48;97051.53;;;15.23;51.33
76732;BME280;65656;51.130;13.658;2023-03-14T14:45:52;97047.50;;;14.58;54.40
76732;BME280;65656;51.130;13.658;2023-03-14T14:49:55;97051.03;;;14.29;54.37
76732;BME280;65656;51.130;13.658;2023-03-14T14:54:03;97038.28;;;14.24;54.62
76732;BME280;65656;51.130;13.658;2023-03-14T14:58:18;97040.13;;;13.56;57.05
76732;BME280;65656;51.130;13.658;2023-03-14T15:02:32;97042.75;;;13.44;56.30
76732;BME280;65656;51.130;13.658;2023-03-14T15:06:36;97041.09;;;13.60;55.81
76732;BME280;65656;51.130;13.658;2023-03-14T15:10:38;97048.59;;;13.33;58.60
76732;BME280;65656;51.130;13.658;2023-03-14T15:14:41;97040.50;;;13.28;57.83
76732;BME280;65656;51.130;13.658;2023-03-14T15:18:42;97050.63;;;13.54;57.64
76732;BME280;65656;51.130;13.658;2023-03-14T15:22:44;97065.56;;;13.35;57.17
76732;BME280;65656;51.130;13.658;2023-03-14T15:26:45;97055.38;;;12.93;58.61
76732;BME280;65656;51.130;13.658;2023-03-14T15:30:49;97056.97;;;12.68;58.43
76732;BME280;65656;51.130;13.658;2023-03-14T15:34:51;97057.78;;;12.77;59.13
76732;BME280;65656;51.130;13.658;2023-03-14T15:38:53;97064.06;;;12.60;59.90
76732;BME280;65656;51.130;13.658;2023-03-14T15:42:55;97062.09;;;12.52;60.68
76732;BME280;65656;51.130;13.658;2023-03-14T15:46:58;97070.97;;;12.40;61.55
76732;BME280;65656;51.130;13.658;2023-03-14T15:50:59;97073.06;;;12.35;61.19
76732;BME280;65656;51.130;13.658;2023-03-14T15:55:01;97085.16;;;12.34;61.82
76732;BME280;65656;51.130;13.658;2023-03-14T15:59:02;97078.66;;;12.21;61.38
76732;BME280;65656;51.130;13.658;2023-03-14T16:03:05;97091.22;;;12.13;61.62
76732;BME280;65656;51.130;13.658;2023-03-14T16:07:07;97096.50;;;12.01;62.70
76732;BME280;65656;51.130;13.658;2023-03-14T16:11:09;97102.97;;;12.05;62.77
76732;BME280;65656;51.130;13.658;2023-03-14T16:15:11;97111.16;;;11.96;63.11
76732;BME280;65656;51.130;13.658;2023-03-14T16:19:14;97138.69;;;11.83;63.03
76732;BME280;65656;51.130;13.658;2023-03-14T16:23:15;97141.19;;;11.70;64.60
76732;BME280;65656;51.130;13.658;2023-03-14T16:27:17;97169.34;;;11.40;67.97
76732;BME280;65656;51.130;13.658;2023-03-14T16:31:19;97177.47;;;10.95;70.75
76732;BME280;65656;51.130;13.658;2023-03-14T16:35:21;97237.63;;;10.31;79.53
76732;BME280;65656;51.130;13.658;2023-03-14T16:39:23;97350.19;;;6.36;88.33
76732;BME280;65656;51.130;13.658;2023-03-14T16:43:25;97356.06;;;5.51;95.53
76732;BME280;65656;51.130;13.658;2023-03-14T16:47:26;97386.63;;;5.11;100.00
76732;BME280;65656;51.130;13.658;2023-03-14T16:51:29;97385.50;;;5.02;100.00
76732;BME280;65656;51.130;13.658;2023-03-14T16:55:30;97428.59;;;4.93;100.00
76732;BME280;65656;51.130;13.658;2023-03-14T16:59:32;97444.88;;;4.93;100.00
76732;BME280;65656;51.130;13.658;2023-03-14T17:03:34;97499.88;;;4.79;100.00
76732;BME280;65656;51.130;13.658;2023-03-14T17:07:36;97512.97;;;4.55;100.00
76732;BME280;65656;51.130;13.658;2023-03-14T17:11:38;97535.06;;;4.41;100.00
76732;BME280;65656;51.130;13.658;2023-03-14T17:15:44;97562.47;;;4.18;100.00
76732;BME280;65656;51.130;13.658;2023-03-14T17:19:46;97587.59;;;4.08;100.00
76732;BME280;65656;51.130;13.658;2023-03-14T17:23:48;97642.41;;;3.94;100.00
76732;BME280;65656;51.130;13.658;2023-03-14T17:27:50;97731.06;;;2.97;99.33
76732;BME280;65656;51.130;13.658;2023-03-14T17:31:52;97775.97;;;2.18;100.00
76732;BME280;65656;51.130;13.658;2023-03-14T17:35:54;97791.53;;;1.57;100.00
76732;BME280;65656;51.130;13.658;2023-03-14T17:39:56;97828.81;;;1.37;100.00
76732;BME280;65656;51.130;13.658;2023-03-14T17:43:58;97846.84;;;1.25;100.00
76732;BME280;65656;51.130;13.658;2023-03-14T17:47:59;97871.56;;;1.22;100.00
76732;BME280;65656;51.130;13.658;2023-03-14T17:52:01;97868.88;;;1.22;100.00
76732;BME280;65656;51.130;13.658;2023-03-14T17:56:04;97900.25;;;1.16;100.00
76732;BME280;65656;51.130;13.658;2023-03-14T18:00:07;97917.88;;;1.19;100.00
76732;BME280;65656;51.130;13.658;2023-03-14T18:04:08;97936.16;;;1.17;100.00
76732;BME280;65656;51.130;13.658;2023-03-14T18:08:12;97952.06;;;1.25;100.00
76732;BME280;65656;51.130;13.658;2023-03-14T18:12:15;97968.03;;;1.26;100.00
76732;BME280;65656;51.130;13.658;2023-03-14T18:16:17;97992.06;;;1.28;100.00
76732;BME280;65656;51.130;13.658;2023-03-14T18:20:18;98002.41;;;1.31;100.00
76732;BME280;65656;51.130;13.658;2023-03-14T18:24:20;98016.06;;;1.36;100.00
76732;BME280;65656;51.130;13.658;2023-03-14T18:28:23;98033.44;;;1.40;100.00
76732;BME280;65656;51.130;13.658;2023-03-14T18:32:24;98043.03;;;1.36;100.00
76732;BME280;65656;51.130;13.658;2023-03-14T18:36:26;98063.22;;;1.33;100.00
76732;BME280;65656;51.130;13.658;2023-03-14T18:40:27;98076.59;;;1.40;100.00
76732;BME280;65656;51.130;13.658;2023-03-14T18:44:30;98085.00;;;1.32;100.00
76732;BME280;65656;51.130;13.658;2023-03-14T18:48:32;98101.69;;;1.22;100.00
76732;BME280;65656;51.130;13.658;2023-03-14T18:52:33;98105.09;;;1.18;100.00
76732;BME280;65656;51.130;13.658;2023-03-14T18:56:35;98105.09;;;1.18;100.00
76732;BME280;65656;51.130;13.658;2023-03-14T19:00:38;98118.72;;;1.23;100.00
76732;BME280;65656;51.130;13.658;2023-03-14T19:04:39;98126.38;;;1.26;100.00
76732;BME280;65656;51.130;13.658;2023-03-14T19:08:41;98131.56;;;1.27;100.00
76732;BME280;65656;51.130;13.658;2023-03-14T19:12:43;98139.41;;;1.29;100.00
76732;BME280;65656;51.130;13.658;2023-03-14T19:16:45;98146.63;;;1.35;100.00
76732;BME280;65656;51.130;13.658;2023-03-14T19:20:55;98153.31;;;1.32;100.00
76732;BME280;65656;51.130;13.658;2023-03-14T19:24:57;98161.41;;;1.32;100.00
76732;BME280;65656;51.130;13.658;2023-03-14T19:28:59;98172.28;;;1.44;100.00
76732;BME280;65656;51.130;13.658;2023-03-14T19:33:01;98188.25;;;1.46;100.00
76732;BME280;65656;51.130;13.658;2023-03-14T19:37:03;98197.34;;;1.51;100.00
76732;BME280;65656;51.130;13.658;2023-03-14T19:41:04;98211.88;;;1.50;100.00
76732;BME280;65656;51.130;13.658;2023-03-14T19:45:07;98230.59;;;1.45;100.00
76732;BME280;65656;51.130;13.658;2023-03-14T19:49:10;98229.78;;;1.45;99.35
76732;BME280;65656;51.130;13.658;2023-03-14T19:53:11;98236.47;;;1.42;98.71
76732;BME280;65656;51.130;13.658;2023-03-14T19:57:15;98250.81;;;1.36;99.43
76732;BME280;65656;51.130;13.658;2023-03-14T20:01:16;98257.09;;;1.30;99.00
76732;BME280;65656;51.130;13.658;2023-03-14T20:05:21;98263.50;;;1.35;98.80
76732;BME280;65656;51.130;13.658;2023-03-14T20:09:23;98271.00;;;1.33;97.43
76732;BME280;65656;51.130;13.658;2023-03-14T20:13:24;98280.97;;;1.33;96.90
76732;BME280;65656;51.130;13.658;2023-03-14T20:17:26;98294.66;;;1.31;96.00
76732;BME280;65656;51.130;13.658;2023-03-14T20:21:31;98313.94;;;1.35;94.96
76732;BME280;65656;51.130;13.658;2023-03-14T20:25:33;98324.97;;;1.33;94.49
76732;BME280;65656;51.130;13.658;2023-03-14T20:29:34;98323.31;;;1.32;93.21
76732;BME280;65656;51.130;13.658;2023-03-14T20:33:36;98338.66;;;1.32;92.64
76732;BME280;65656;51.130;13.658;2023-03-14T20:37:39;98336.59;;;1.34;92.61
76732;BME280;65656;51.130;13.658;2023-03-14T20:41:40;98343.31;;;1.18;93.57
76732;BME280;65656;51.130;13.658;2023-03-14T20:45:42;98362.78;;;1.27;92.48
76732;BME280;65656;51.130;13.658;2023-03-14T20:49:43;98372.97;;;1.25;91.58
76732;BME280;65656;51.130;13.658;2023-03-14T20:53:46;98368.19;;;1.27;91.29
76732;BME280;65656;51.130;13.658;2023-03-14T20:57:47;98371.13;;;1.19;90.18
76732;BME280;65656;51.130;13.658;2023-03-14T21:01:49;98370.28;;;1.25;88.39
76732;BME280;65656;51.130;13.658;2023-03-14T21:05:51;98380.06;;;1.13;89.20
76732;BME280;65656;51.130;13.658;2023-03-14T21:09:54;98388.19;;;1.06;87.93
76732;BME280;65656;51.130;13.658;2023-03-14T21:13:55;98403.13;;;1.08;87.39
76732;BME280;65656;51.130;13.658;2023-03-14T21:17:57;98411.69;;;0.92;88.66
76732;BME280;65656;51.130;13.658;2023-03-14T21:22:00;98421.06;;;0.83;88.67